createdAt,value
2022-09-28T00:00:51.731Z,95.48
2022-09-28T00:01:51.788Z,95.58
2022-09-28T00:02:51.759Z,95.58
2022-09-28T00:03:51.681Z,95.68
2022-09-28T00:04:51.675Z,95.78
2022-09-28T00:05:51.651Z,95.68
2022-09-28T00:06:51.670Z,95.68
2022-09-28T00:07:51.631Z,95.58
2022-09-28T00:08:51.631Z,95.68
2022-09-28T00:09:51.600Z,95.58
2022-09-28T00:10:51.642Z,95.58
2022-09-28T00:11:51.610Z,95.37
2022-09-28T00:12:52.553Z,95.27
2022-09-28T00:13:52.455Z,95.27
2022-09-28T00:14:51.570Z,95.17
2022-09-28T00:15:51.541Z,95.17
2022-09-28T00:16:51.613Z,95.27
2022-09-28T00:17:51.523Z,95.27
2022-09-28T00:18:52.229Z,95.37
2022-09-28T00:19:51.500Z,95.43
2022-09-28T00:20:51.490Z,95.43
2022-09-28T00:21:51.469Z,95.53
2022-09-28T00:22:51.470Z,95.64
2022-09-28T00:23:51.459Z,95.74
2022-09-28T00:24:51.472Z,95.74
2022-09-28T00:25:51.429Z,95.53
2022-09-28T00:26:51.429Z,95.53
2022-09-28T00:27:51.414Z,95.53
2022-09-28T00:28:51.409Z,95.74
2022-09-28T00:29:52.170Z,95.74
2022-09-28T00:30:51.380Z,95.64
2022-09-28T00:31:51.375Z,95.53
2022-09-28T00:32:51.370Z,95.43
2022-09-28T00:33:52.073Z,95.43
2022-09-28T00:34:52.200Z,95.33
2022-09-28T00:35:51.369Z,95.23
2022-09-28T00:36:51.310Z,95.33
2022-09-28T00:37:51.289Z,95.23
2022-09-28T00:38:51.297Z,95.23
2022-09-28T00:39:51.268Z,95.33
2022-09-28T00:40:51.302Z,95.33
2022-09-28T00:41:51.241Z,95.43
2022-09-28T00:42:51.278Z,95.43
2022-09-28T00:43:51.220Z,95.53
2022-09-28T00:44:51.849Z,95.53
2022-09-28T00:45:51.239Z,95.53
2022-09-28T00:46:52.077Z,95.53
2022-09-28T00:47:51.178Z,95.74
2022-09-28T00:48:51.180Z,95.74
2022-09-28T00:49:51.158Z,95.74
2022-09-28T00:50:51.149Z,95.74
2022-09-28T00:51:51.143Z,95.64
2022-09-28T00:52:51.137Z,95.43
2022-09-28T00:53:51.124Z,95.33
2022-09-28T00:54:51.818Z,95.33
2022-09-28T00:55:51.090Z,95.33
2022-09-28T00:56:51.096Z,95.43
2022-09-28T00:57:51.060Z,95.43
2022-09-28T00:58:51.067Z,95.43
2022-09-28T00:59:51.040Z,95.43
2022-09-28T01:00:51.073Z,95.43
2022-09-28T01:01:51.024Z,95.43
2022-09-28T01:02:51.028Z,95.53
2022-09-28T01:03:50.997Z,95.53
2022-09-28T01:04:51.016Z,95.53
2022-09-28T01:05:50.977Z,95.53
2022-09-28T01:06:50.977Z,95.64
2022-09-28T01:07:50.977Z,95.74
2022-09-28T01:08:50.977Z,95.74
2022-09-28T01:09:50.918Z,95.84
2022-09-28T01:10:50.927Z,95.84
2022-09-28T01:11:50.908Z,95.84
2022-09-28T01:12:50.907Z,95.84
2022-09-28T01:13:50.898Z,95.84
2022-09-28T01:14:50.897Z,95.84
2022-09-28T01:15:51.009Z,95.84
2022-09-28T01:16:50.926Z,95.84
2022-09-28T01:17:50.836Z,95.95
2022-09-28T01:18:50.861Z,95.95
2022-09-28T01:19:50.806Z,95.95
2022-09-28T01:20:50.823Z,96.05
2022-09-28T01:21:50.779Z,96.05
2022-09-28T01:22:50.786Z,95.95
2022-09-28T01:23:50.765Z,95.95
2022-09-28T01:24:50.779Z,95.74
2022-09-28T01:25:50.746Z,95.53
2022-09-28T01:26:50.750Z,95.64
2022-09-28T01:27:50.720Z,95.64
2022-09-28T01:28:50.723Z,95.74
2022-09-28T01:29:50.697Z,95.64
2022-09-28T01:30:50.696Z,95.64
2022-09-28T01:31:50.908Z,95.43
2022-09-28T01:32:50.666Z,95.43
2022-09-28T01:33:50.657Z,95.53
2022-09-28T01:34:50.725Z,95.64
2022-09-28T01:35:51.469Z,95.64
2022-09-28T01:36:50.685Z,95.64
2022-09-28T01:37:50.595Z,95.43
2022-09-28T01:38:50.607Z,95.33
2022-09-28T01:39:50.576Z,95.33
2022-09-28T01:40:50.666Z,95.23
2022-09-28T01:41:50.555Z,95.12
2022-09-28T01:42:50.565Z,95.23
2022-09-28T01:43:50.536Z,95.33
2022-09-28T01:44:50.555Z,95.33
2022-09-28T01:45:50.569Z,95.33
2022-09-28T01:46:50.514Z,95.43
2022-09-28T01:47:50.516Z,95.43
2022-09-28T01:48:50.496Z,95.53
2022-09-28T01:49:50.465Z,95.64
2022-09-28T01:50:50.465Z,95.43
2022-09-28T01:51:50.444Z,95.23
2022-09-28T01:52:50.445Z,95.23
2022-09-28T01:53:50.416Z,95.12
2022-09-28T01:54:50.484Z,95.33
2022-09-28T01:55:50.405Z,95.43
2022-09-28T01:56:50.415Z,95.43
2022-09-28T01:57:50.825Z,95.43
2022-09-28T01:58:50.383Z,95.23
2022-09-28T01:59:50.354Z,94.92
2022-09-28T02:00:50.391Z,94.96
2022-09-28T02:01:50.365Z,94.92
2022-09-28T02:02:50.333Z,94.96
2022-09-28T02:03:50.304Z,94.96
2022-09-28T02:04:50.312Z,95.06
2022-09-28T02:05:50.300Z,94.96
2022-09-28T02:06:50.604Z,94.85
2022-09-28T02:07:50.254Z,94.45
2022-09-28T02:08:50.257Z,94.55
2022-09-28T02:09:51.024Z,94.65
2022-09-28T02:10:50.253Z,94.76
2022-09-28T02:11:50.215Z,94.76
2022-09-28T02:12:50.214Z,94.76
2022-09-28T02:13:50.196Z,94.76
2022-09-28T02:14:50.202Z,94.65
2022-09-28T02:15:50.964Z,94.55
2022-09-28T02:16:50.174Z,94.34
2022-09-28T02:17:50.144Z,94.45
2022-09-28T02:18:50.144Z,94.55
2022-09-28T02:19:50.123Z,94.55
2022-09-28T02:20:50.123Z,94.55
2022-09-28T02:21:50.124Z,94.03
2022-09-28T02:22:50.115Z,94.08
2022-09-28T02:23:50.074Z,94.03
2022-09-28T02:24:50.082Z,94.03
2022-09-28T02:25:50.053Z,94.18
2022-09-28T02:26:50.052Z,94.28
2022-09-28T02:27:50.050Z,94.18
2022-09-28T02:28:50.032Z,94.18
2022-09-28T02:29:50.003Z,94.18
2022-09-28T02:30:50.005Z,94.08
2022-09-28T02:31:50.059Z,94.18
2022-09-28T02:32:49.991Z,94.18
2022-09-28T02:33:49.963Z,94.28
2022-09-28T02:34:49.962Z,94.49
2022-09-28T02:35:50.832Z,94.59
2022-09-28T02:36:50.741Z,94.59
2022-09-28T02:37:49.952Z,94.59
2022-09-28T02:38:49.924Z,94.70
2022-09-28T02:39:49.894Z,94.70
2022-09-28T02:40:49.910Z,94.80
2022-09-28T02:41:49.867Z,94.80
2022-09-28T02:42:49.870Z,94.80
2022-09-28T02:43:49.853Z,94.80
2022-09-28T02:44:49.852Z,94.70
2022-09-28T02:45:49.864Z,94.49
2022-09-28T02:46:49.824Z,94.49
2022-09-28T02:47:49.802Z,94.49
2022-09-28T02:49:04.918Z,94.49
2022-09-28T02:49:50.772Z,94.59
2022-09-28T02:50:49.784Z,94.70
2022-09-28T02:51:49.754Z,94.70
2022-09-28T02:52:49.751Z,94.70
2022-09-28T02:53:50.141Z,94.59
2022-09-28T02:54:49.730Z,94.70
2022-09-28T02:55:49.701Z,94.70
2022-09-28T02:56:49.814Z,94.38
2022-09-28T02:57:49.683Z,94.18
2022-09-28T02:58:49.683Z,94.08
2022-09-28T02:59:49.672Z,94.38
2022-09-28T03:00:49.767Z,94.49
2022-09-28T03:01:49.655Z,94.59
2022-09-28T03:02:49.639Z,94.49
2022-09-28T03:03:49.619Z,94.28
2022-09-28T03:04:49.630Z,94.28
2022-09-28T03:05:49.592Z,94.38
2022-09-28T03:06:49.616Z,94.49
2022-09-28T03:07:49.575Z,94.59
2022-09-28T03:08:49.569Z,94.38
2022-09-28T03:09:49.541Z,94.49
2022-09-28T03:10:49.556Z,94.38
2022-09-28T03:11:49.520Z,94.49
2022-09-28T03:12:49.532Z,94.49
2022-09-28T03:13:49.511Z,94.59
2022-09-28T03:14:49.501Z,94.70
2022-09-28T03:15:49.489Z,94.70
2022-09-28T03:16:50.257Z,94.80
2022-09-28T03:17:50.379Z,94.90
2022-09-28T03:18:49.474Z,95.00
2022-09-28T03:19:49.440Z,95.00
2022-09-28T03:20:49.437Z,94.80
2022-09-28T03:21:49.408Z,94.70
2022-09-28T03:23:12.427Z,94.70
2022-09-28T03:23:50.380Z,94.59
2022-09-28T03:24:49.388Z,94.70
2022-09-28T03:25:49.710Z,94.70
2022-09-28T03:26:49.580Z,94.59
2022-09-28T03:27:49.339Z,94.38
2022-09-28T03:28:49.340Z,94.38
2022-09-28T03:29:49.318Z,94.59
2022-09-28T03:30:49.321Z,94.59
2022-09-28T03:31:49.385Z,94.59
2022-09-28T03:32:49.299Z,94.59
2022-09-28T03:33:49.270Z,94.70
2022-09-28T03:34:49.279Z,94.80
2022-09-28T03:35:49.249Z,94.90
2022-09-28T03:36:49.331Z,94.80
2022-09-28T03:37:49.998Z,94.80
2022-09-28T03:38:49.300Z,94.70
2022-09-28T03:39:49.203Z,94.80
2022-09-28T03:40:49.236Z,94.70
2022-09-28T03:41:49.179Z,94.80
2022-09-28T03:42:49.190Z,94.80
2022-09-28T03:43:49.171Z,94.70
2022-09-28T03:44:49.169Z,94.49
2022-09-28T03:45:49.158Z,94.38
2022-09-28T03:46:49.138Z,94.28
2022-09-28T03:47:49.109Z,94.18
2022-09-28T03:48:49.123Z,94.28
2022-09-28T03:49:49.098Z,94.18
2022-09-28T03:50:49.099Z,94.08
2022-09-28T03:51:49.067Z,94.08
2022-09-28T03:52:49.068Z,94.18
2022-09-28T03:53:49.059Z,94.28
2022-09-28T03:54:49.448Z,94.28
2022-09-28T03:55:49.038Z,94.18
2022-09-28T03:56:49.047Z,93.98
2022-09-28T03:57:49.388Z,93.87
2022-09-28T03:58:48.992Z,93.98
2022-09-28T03:59:48.989Z,94.08
2022-09-28T04:00:48.986Z,93.87
2022-09-28T04:01:49.002Z,93.77
2022-09-28T04:02:48.947Z,93.87
2022-09-28T04:03:48.948Z,93.87
2022-09-28T04:04:48.938Z,93.87
2022-09-28T04:05:48.928Z,93.98
2022-09-28T04:06:49.778Z,94.08
2022-09-28T04:07:48.907Z,94.08
2022-09-28T04:08:48.877Z,94.18
2022-09-28T04:09:48.887Z,94.18
2022-09-28T04:10:48.867Z,94.28
2022-09-28T04:12:03.377Z,94.28
2022-09-28T04:12:49.827Z,94.28
2022-09-28T04:13:48.847Z,94.38
2022-09-28T04:14:48.810Z,94.28
2022-09-28T04:15:48.817Z,94.28
2022-09-28T04:16:48.836Z,94.18
2022-09-28T04:17:48.857Z,94.08
2022-09-28T04:18:48.768Z,94.18
2022-09-28T04:19:48.782Z,94.08
2022-09-28T04:20:48.812Z,94.08
2022-09-28T04:21:48.747Z,94.08
2022-09-28T04:22:48.718Z,93.77
2022-09-28T04:23:48.732Z,93.66
2022-09-28T04:24:48.695Z,93.77
2022-09-28T04:25:48.698Z,93.77
2022-09-28T04:26:48.698Z,93.66
2022-09-28T04:27:48.667Z,93.56
2022-09-28T04:28:48.657Z,93.56
2022-09-28T04:29:48.646Z,93.66
2022-09-28T04:30:48.627Z,93.35
2022-09-28T04:31:48.763Z,93.35
2022-09-28T04:32:48.616Z,93.46
2022-09-28T04:33:48.605Z,93.56
2022-09-28T04:34:48.585Z,93.77
2022-09-28T04:35:48.586Z,94.08
2022-09-28T04:36:48.557Z,93.98
2022-09-28T04:37:48.578Z,93.98
2022-09-28T04:38:53.219Z,93.81
2022-09-28T04:39:48.789Z,93.77
2022-09-28T04:40:48.561Z,93.71
2022-09-28T04:41:48.518Z,93.71
2022-09-28T04:42:48.488Z,93.81
2022-09-28T04:43:48.496Z,93.71
2022-09-28T04:44:48.469Z,93.81
2022-09-28T04:45:48.624Z,94.02
2022-09-28T04:46:48.446Z,94.23
2022-09-28T04:47:48.459Z,94.23
2022-09-28T04:48:48.430Z,94.23
2022-09-28T04:49:48.423Z,94.23
2022-09-28T04:50:49.145Z,94.32
2022-09-28T04:51:48.468Z,94.32
2022-09-28T04:52:48.375Z,94.43
2022-09-28T04:53:48.384Z,94.53
2022-09-28T04:54:48.371Z,94.53
2022-09-28T04:55:48.355Z,94.53
2022-09-28T04:56:48.355Z,94.53
2022-09-28T04:57:48.333Z,94.53
2022-09-28T04:58:52.626Z,94.53
2022-09-28T04:59:49.072Z,94.53
2022-09-28T05:00:48.563Z,94.64
2022-09-28T05:01:48.372Z,94.74
2022-09-28T05:02:48.264Z,94.74
2022-09-28T05:03:48.264Z,94.64
2022-09-28T05:04:48.234Z,94.64
2022-09-28T05:05:48.266Z,94.74
2022-09-28T05:06:48.226Z,94.74
2022-09-28T05:07:48.215Z,94.74
2022-09-28T05:08:48.193Z,94.74
2022-09-28T05:09:48.200Z,94.64
2022-09-28T05:10:48.163Z,94.43
2022-09-28T05:11:48.868Z,94.43
2022-09-28T05:12:48.164Z,94.64
2022-09-28T05:13:48.154Z,94.64
2022-09-28T05:14:48.124Z,94.32
2022-09-28T05:15:48.132Z,94.32
2022-09-28T05:16:48.178Z,93.91
2022-09-28T05:17:48.109Z,93.81
2022-09-28T05:18:48.093Z,93.81
2022-09-28T05:19:48.082Z,93.91
2022-09-28T05:20:48.054Z,93.81
2022-09-28T05:21:48.064Z,93.81
2022-09-28T05:22:48.033Z,93.81
2022-09-28T05:23:48.042Z,93.81
2022-09-28T05:24:48.016Z,94.02
2022-09-28T05:25:48.013Z,94.12
2022-09-28T05:26:47.983Z,94.23
2022-09-28T05:27:47.992Z,94.12
2022-09-28T05:28:47.965Z,94.02
2022-09-28T05:29:47.963Z,94.12
2022-09-28T05:30:47.972Z,94.02
2022-09-28T05:31:47.986Z,94.02
2022-09-28T05:32:47.922Z,94.12
2022-09-28T05:33:47.928Z,94.23
2022-09-28T05:34:47.942Z,94.32
2022-09-28T05:35:52.379Z,94.43
2022-09-28T05:36:48.873Z,94.53
2022-09-28T05:37:47.884Z,94.53
2022-09-28T05:38:47.852Z,94.53
2022-09-28T05:39:48.780Z,94.53
2022-09-28T05:40:47.913Z,94.53
2022-09-28T05:41:47.831Z,94.64
2022-09-28T05:42:47.812Z,94.74
2022-09-28T05:43:47.812Z,94.84
2022-09-28T05:44:47.791Z,94.95
2022-09-28T05:45:51.524Z,94.95
2022-09-28T05:46:48.771Z,94.95
2022-09-28T05:47:47.770Z,94.95
2022-09-28T05:48:47.753Z,94.95
2022-09-28T05:49:47.731Z,94.74
2022-09-28T05:50:47.711Z,94.74
2022-09-28T05:51:47.720Z,94.74
2022-09-28T05:52:47.693Z,94.74
2022-09-28T05:53:47.693Z,94.84
2022-09-28T05:54:47.681Z,94.84
2022-09-28T05:55:47.673Z,94.95
2022-09-28T05:56:47.652Z,94.95
2022-09-28T05:57:47.655Z,94.84
2022-09-28T05:58:47.620Z,94.43
2022-09-28T05:59:47.623Z,94.32
2022-09-28T06:00:48.588Z,94.43
2022-09-28T06:01:48.460Z,94.53
2022-09-28T06:02:47.741Z,94.32
2022-09-28T06:03:47.581Z,94.23
2022-09-28T06:04:47.551Z,94.23
2022-09-28T06:05:47.561Z,94.12
2022-09-28T06:06:47.530Z,94.02
2022-09-28T06:07:47.530Z,93.91
2022-09-28T06:08:47.510Z,94.02
2022-09-28T06:09:47.540Z,93.81
2022-09-28T06:10:47.480Z,93.81
2022-09-28T06:11:47.480Z,93.87
2022-09-28T06:12:47.460Z,93.98
2022-09-28T06:13:47.480Z,93.77
2022-09-28T06:14:47.430Z,93.46
2022-09-28T06:15:47.438Z,93.35
2022-09-28T06:16:47.458Z,93.25
2022-09-28T06:17:47.418Z,93.46
2022-09-28T06:18:47.400Z,93.35
2022-09-28T06:19:47.406Z,93.46
2022-09-28T06:20:47.393Z,93.05
2022-09-28T06:21:48.330Z,93.15
2022-09-28T06:22:47.370Z,93.15
2022-09-28T06:23:49.365Z,92.94
2022-09-28T06:24:47.347Z,93.15
2022-09-28T06:25:47.330Z,93.35
2022-09-28T06:26:47.300Z,93.56
2022-09-28T06:27:47.300Z,93.41
2022-09-28T06:28:48.171Z,93.41
2022-09-28T06:29:47.289Z,93.41
2022-09-28T06:30:47.332Z,93.41
2022-09-28T06:31:47.264Z,93.52
2022-09-28T06:32:47.230Z,93.52
2022-09-28T06:33:47.291Z,93.41
2022-09-28T06:34:47.210Z,93.21
2022-09-28T06:35:47.218Z,93.21
2022-09-28T06:36:47.230Z,93.21
2022-09-28T06:37:47.196Z,93.21
2022-09-28T06:38:47.159Z,93.21
2022-09-28T06:39:47.320Z,93.31
2022-09-28T06:40:47.215Z,93.31
2022-09-28T06:41:47.948Z,93.01
2022-09-28T06:42:47.131Z,93.01
2022-09-28T06:43:47.167Z,93.11
2022-09-28T06:44:47.105Z,93.21
2022-09-28T06:45:47.132Z,93.21
2022-09-28T06:46:47.079Z,93.11
2022-09-28T06:47:47.085Z,93.21
2022-09-28T06:48:47.078Z,93.31
2022-09-28T06:49:47.059Z,93.41
2022-09-28T06:50:47.027Z,93.52
2022-09-28T06:51:47.030Z,93.37
2022-09-28T06:52:47.008Z,93.37
2022-09-28T06:53:47.268Z,93.16
2022-09-28T06:54:47.011Z,93.16
2022-09-28T06:55:46.999Z,93.37
2022-09-28T06:56:46.977Z,93.37
2022-09-28T06:57:46.986Z,93.06
2022-09-28T06:58:46.944Z,92.92
2022-09-28T06:59:46.947Z,92.82
2022-09-28T07:00:47.718Z,92.71
2022-09-28T07:01:47.051Z,92.61
2022-09-28T07:02:47.782Z,92.40
2022-09-28T07:03:46.916Z,91.27
2022-09-28T07:04:46.886Z,91.17
2022-09-28T07:05:46.877Z,90.14
2022-09-28T07:06:46.907Z,90.66
2022-09-28T07:07:46.875Z,91.06
2022-09-28T07:08:57.873Z,91.17
2022-09-28T07:09:51.232Z,91.27
2022-09-28T07:10:47.728Z,91.23
2022-09-28T07:11:46.818Z,91.44
2022-09-28T07:12:46.797Z,91.44
2022-09-28T07:13:51.018Z,91.39
2022-09-28T07:14:48.377Z,91.39
2022-09-28T07:15:46.768Z,90.47
2022-09-28T07:17:10.033Z,90.16
2022-09-28T07:18:00.571Z,90.26
2022-09-28T07:18:47.737Z,90.22
2022-09-28T07:19:47.104Z,89.81
2022-09-28T07:20:53.332Z,89.60
2022-09-28T07:21:59.019Z,88.17
2022-09-28T07:22:48.394Z,88.10
2022-09-28T07:23:53.610Z,88.57
2022-09-28T07:24:47.656Z,88.89
2022-09-28T07:25:46.681Z,88.68
2022-09-28T07:26:46.645Z,88.89
2022-09-28T07:27:46.636Z,89.09
2022-09-28T07:28:46.607Z,88.98
2022-09-28T07:29:46.617Z,88.74
2022-09-28T07:30:46.674Z,88.95
2022-09-28T07:31:46.596Z,88.23
2022-09-28T07:32:46.571Z,88.02
2022-09-28T07:33:46.566Z,88.33
2022-09-28T07:34:46.546Z,88.02
2022-09-28T07:35:46.548Z,87.71
2022-09-28T07:36:46.536Z,87.61
2022-09-28T07:37:46.607Z,87.82
2022-09-28T07:38:46.505Z,87.71
2022-09-28T07:39:46.506Z,87.61
2022-09-28T07:40:48.419Z,87.20
2022-09-28T07:41:46.476Z,87.34
2022-09-28T07:42:46.606Z,88.06
2022-09-28T07:43:47.145Z,88.68
2022-09-28T07:44:46.447Z,88.57
2022-09-28T07:45:46.480Z,88.57
2022-09-28T07:46:46.435Z,88.68
2022-09-28T07:47:46.468Z,88.78
2022-09-28T07:48:46.398Z,88.78
2022-09-28T07:49:46.391Z,88.68
2022-09-28T07:50:46.375Z,88.98
2022-09-28T07:51:46.444Z,89.29
2022-09-28T07:52:46.344Z,89.29
2022-09-28T07:53:46.345Z,88.68
2022-09-28T07:54:46.325Z,88.17
2022-09-28T07:55:46.326Z,88.53
2022-09-28T07:56:47.148Z,88.74
2022-09-28T07:57:46.315Z,88.74
2022-09-28T07:58:46.326Z,88.84
2022-09-28T07:59:46.304Z,88.84
2022-09-28T08:00:46.285Z,88.84
2022-09-28T08:01:46.354Z,88.43
2022-09-28T08:02:47.128Z,88.64
2022-09-28T08:03:46.995Z,88.43
2022-09-28T08:04:46.236Z,88.89
2022-09-28T08:05:46.215Z,88.98
2022-09-28T08:06:46.205Z,89.40
2022-09-28T08:07:46.216Z,89.19
2022-09-28T08:08:46.170Z,88.78
2022-09-28T08:09:46.186Z,89.19
2022-09-28T08:10:47.420Z,89.40
2022-09-28T08:11:46.133Z,89.60
2022-09-28T08:12:46.174Z,89.29
2022-09-28T08:13:46.114Z,89.40
2022-09-28T08:14:46.114Z,89.40
2022-09-28T08:15:46.085Z,89.29
2022-09-28T08:16:47.665Z,89.76
2022-09-28T08:17:46.068Z,89.46
2022-09-28T08:18:46.824Z,89.15
2022-09-28T08:19:46.056Z,88.95
2022-09-28T08:20:50.729Z,88.23
2022-09-28T08:21:47.034Z,88.57
2022-09-28T08:22:46.034Z,88.57
2022-09-28T08:23:46.854Z,88.89
2022-09-28T08:24:46.774Z,88.68
2022-09-28T08:25:45.984Z,88.84
2022-09-28T08:26:45.996Z,88.95
2022-09-28T08:27:45.955Z,88.64
2022-09-28T08:28:45.963Z,88.74
2022-09-28T08:29:45.943Z,88.80
2022-09-28T08:30:46.014Z,88.90
2022-09-28T08:31:45.921Z,88.18
2022-09-28T08:32:45.915Z,87.88
2022-09-28T08:33:45.894Z,87.98
2022-09-28T08:34:45.906Z,88.18
2022-09-28T08:35:45.874Z,87.46
2022-09-28T08:36:45.881Z,86.95
2022-09-28T08:37:49.908Z,87.77
2022-09-28T08:38:46.854Z,87.67
2022-09-28T08:39:45.824Z,87.16
2022-09-28T08:40:45.864Z,87.26
2022-09-28T08:41:45.803Z,87.67
2022-09-28T08:42:45.805Z,87.37
2022-09-28T08:43:46.503Z,87.88
2022-09-28T08:44:46.644Z,88.08
2022-09-28T08:45:45.794Z,88.29
2022-09-28T08:46:45.763Z,88.39
2022-09-28T08:47:45.733Z,88.59
2022-09-28T08:48:56.348Z,88.59
2022-09-28T08:49:46.749Z,88.29
2022-09-28T08:50:45.733Z,88.86
2022-09-28T08:51:46.473Z,88.35
2022-09-28T08:52:45.714Z,87.94
2022-09-28T08:53:45.663Z,88.00
2022-09-28T08:54:45.672Z,87.49
2022-09-28T08:55:45.649Z,87.08
2022-09-28T08:56:45.663Z,86.57
2022-09-28T08:57:45.632Z,86.15
2022-09-28T08:58:45.643Z,86.46
2022-09-28T08:59:45.602Z,86.66
2022-09-28T09:00:45.607Z,86.36
2022-09-28T09:01:45.649Z,86.36
2022-09-28T09:02:45.958Z,86.66
2022-09-28T09:03:45.575Z,86.63
2022-09-28T09:04:45.807Z,86.01
2022-09-28T09:05:45.540Z,85.64
2022-09-28T09:06:45.549Z,85.74
2022-09-28T09:07:45.793Z,85.85
2022-09-28T09:08:45.526Z,85.03
2022-09-28T09:09:45.512Z,85.33
2022-09-28T09:10:45.492Z,85.64
2022-09-28T09:11:45.474Z,85.54
2022-09-28T09:12:45.525Z,85.64
2022-09-28T09:13:45.454Z,86.15
2022-09-28T09:14:45.479Z,85.13
2022-09-28T09:15:45.474Z,84.99
2022-09-28T09:16:45.510Z,85.71
2022-09-28T09:17:45.392Z,85.87
2022-09-28T09:18:45.411Z,84.33
2022-09-28T09:19:45.381Z,82.59
2022-09-28T09:20:45.381Z,83.10
2022-09-28T09:21:45.361Z,83.41
2022-09-28T09:22:45.374Z,81.91
2022-09-28T09:23:45.331Z,83.31
2022-09-28T09:24:46.124Z,83.41
2022-09-28T09:25:45.496Z,84.12
2022-09-28T09:26:45.332Z,83.00
2022-09-28T09:27:45.301Z,82.76
2022-09-28T09:28:45.291Z,82.55
2022-09-28T09:29:45.272Z,82.76
2022-09-28T09:30:45.290Z,83.27
2022-09-28T09:31:45.251Z,83.23
2022-09-28T09:32:45.252Z,82.41
2022-09-28T09:33:45.221Z,80.77
2022-09-28T09:34:45.233Z,81.08
2022-09-28T09:35:45.211Z,80.88
2022-09-28T09:36:45.212Z,81.08
2022-09-28T09:37:45.182Z,80.77
2022-09-28T09:38:45.183Z,80.98
2022-09-28T09:39:45.172Z,81.22
2022-09-28T09:40:45.212Z,81.98
2022-09-28T09:41:45.131Z,82.59
2022-09-28T09:42:45.130Z,83.31
2022-09-28T09:43:45.136Z,83.10
2022-09-28T09:44:45.110Z,83.61
2022-09-28T09:45:45.125Z,83.25
2022-09-28T09:46:45.814Z,82.53
2022-09-28T09:47:45.077Z,83.04
2022-09-28T09:48:45.107Z,83.76
2022-09-28T09:49:45.093Z,84.00
2022-09-28T09:50:45.041Z,83.94
2022-09-28T09:51:45.261Z,84.96
2022-09-28T09:52:45.023Z,85.47
2022-09-28T09:53:45.001Z,86.09
2022-09-28T09:54:45.021Z,86.71
2022-09-28T09:55:44.974Z,86.91
2022-09-28T09:56:44.980Z,86.30
2022-09-28T09:57:45.643Z,86.46
2022-09-28T09:58:44.951Z,86.66
2022-09-28T09:59:44.986Z,86.87
2022-09-28T10:00:45.742Z,86.42
2022-09-28T10:01:44.964Z,85.50
2022-09-28T10:02:45.045Z,84.58
2022-09-28T10:03:44.883Z,83.86
2022-09-28T10:04:44.881Z,84.44
2022-09-28T10:05:45.771Z,84.84
2022-09-28T10:06:45.691Z,84.44
2022-09-28T10:07:44.842Z,83.61
2022-09-28T10:08:44.831Z,83.82
2022-09-28T10:09:44.811Z,83.82
2022-09-28T10:10:44.818Z,83.10
2022-09-28T10:11:44.783Z,84.03
2022-09-28T10:12:44.793Z,83.10
2022-09-28T10:13:44.800Z,83.00
2022-09-28T10:14:44.761Z,83.92
2022-09-28T10:15:44.760Z,83.98
2022-09-28T10:16:44.821Z,83.95
2022-09-28T10:17:44.720Z,83.74
2022-09-28T10:18:44.759Z,81.49
2022-09-28T10:19:44.701Z,81.56
2022-09-28T10:20:44.700Z,81.15
2022-09-28T10:21:44.681Z,81.24
2022-09-28T10:22:44.681Z,82.03
2022-09-28T10:23:44.651Z,81.62
2022-09-28T10:24:44.704Z,80.60
2022-09-28T10:25:44.649Z,81.93
2022-09-28T10:26:44.933Z,81.31
2022-09-28T10:27:44.620Z,82.34
2022-09-28T10:28:44.600Z,81.93
2022-09-28T10:29:45.030Z,81.72
2022-09-28T10:30:44.771Z,81.93
2022-09-28T10:31:44.560Z,79.91
2022-09-28T10:32:44.570Z,81.04
2022-09-28T10:33:44.550Z,82.17
2022-09-28T10:34:48.751Z,82.21
2022-09-28T10:35:45.521Z,81.79
2022-09-28T10:36:44.657Z,82.31
2022-09-28T10:37:44.552Z,82.82
2022-09-28T10:38:44.502Z,83.23
2022-09-28T10:39:44.471Z,82.71
2022-09-28T10:40:45.306Z,82.45
2022-09-28T10:41:45.161Z,82.31
2022-09-28T10:42:44.463Z,83.13
2022-09-28T10:43:47.756Z,83.33
2022-09-28T10:44:45.428Z,83.64
2022-09-28T10:45:44.443Z,83.74
2022-09-28T10:46:44.467Z,83.74
2022-09-28T10:47:45.101Z,83.33
2022-09-28T10:48:44.409Z,82.57
2022-09-28T10:49:47.097Z,82.27
2022-09-28T10:50:44.361Z,81.56
2022-09-28T10:51:44.419Z,81.76
2022-09-28T10:52:44.338Z,81.76
2022-09-28T10:53:44.310Z,82.27
2022-09-28T10:54:44.319Z,81.86
2022-09-28T10:55:44.291Z,81.24
2022-09-28T10:56:44.322Z,81.24
2022-09-28T10:57:44.279Z,81.65
2022-09-28T10:58:44.277Z,82.17
2022-09-28T10:59:44.241Z,82.34
2022-09-28T11:00:44.240Z,82.43
2022-09-28T11:01:44.333Z,82.91
2022-09-28T11:02:44.977Z,81.10
2022-09-28T11:03:44.209Z,80.76
2022-09-28T11:04:44.210Z,81.27
2022-09-28T11:05:44.171Z,80.87
2022-09-28T11:06:44.189Z,81.62
2022-09-28T11:07:44.219Z,82.60
2022-09-28T11:08:44.717Z,83.01
2022-09-28T11:09:46.777Z,82.29
2022-09-28T11:10:44.139Z,81.79
2022-09-28T11:11:44.140Z,81.58
2022-09-28T11:12:44.120Z,81.21
2022-09-28T11:13:44.159Z,81.31
2022-09-28T11:14:44.089Z,81.41
2022-09-28T11:15:44.953Z,82.23
2022-09-28T11:16:44.145Z,82.60
2022-09-28T11:17:44.791Z,82.91
2022-09-28T11:18:44.068Z,82.26
2022-09-28T11:19:44.019Z,81.03
2022-09-28T11:20:45.520Z,80.48
2022-09-28T11:21:43.998Z,79.97
2022-09-28T11:22:44.029Z,79.43
2022-09-28T11:23:43.978Z,78.50
2022-09-28T11:24:43.978Z,77.48
2022-09-28T11:25:43.948Z,78.71
2022-09-28T11:26:43.969Z,78.67
2022-09-28T11:27:44.811Z,77.45
2022-09-28T11:28:43.959Z,78.47
2022-09-28T11:29:43.919Z,78.00
2022-09-28T11:30:43.948Z,77.08
2022-09-28T11:31:43.898Z,79.66
2022-09-28T11:32:43.898Z,80.28
2022-09-28T11:33:43.868Z,79.50
2022-09-28T11:34:58.539Z,80.21
2022-09-28T11:35:44.857Z,80.87
2022-09-28T11:36:43.849Z,81.68
2022-09-28T11:37:43.829Z,81.31
2022-09-28T11:38:43.829Z,82.03
2022-09-28T11:39:43.799Z,81.93
2022-09-28T11:40:43.860Z,81.62
2022-09-28T11:41:43.799Z,82.89
2022-09-28T11:42:43.788Z,82.57
2022-09-28T11:43:43.758Z,83.60
2022-09-28T11:44:43.768Z,82.98
2022-09-28T11:45:43.816Z,83.60
2022-09-28T11:46:44.268Z,82.78
2022-09-28T11:47:44.492Z,81.65
2022-09-28T11:48:44.587Z,82.89
2022-09-28T11:49:43.738Z,82.13
2022-09-28T11:50:43.709Z,81.10
2022-09-28T11:51:43.676Z,81.68
2022-09-28T11:52:43.708Z,81.79
2022-09-28T11:53:43.662Z,80.76
2022-09-28T11:54:43.850Z,81.24
2022-09-28T11:55:43.633Z,80.56
2022-09-28T11:56:43.629Z,80.15
2022-09-28T11:57:43.618Z,80.69
2022-09-28T11:58:43.609Z,80.39
2022-09-28T11:59:43.578Z,80.80
2022-09-28T12:00:43.588Z,81.82
2022-09-28T12:01:43.570Z,82.70
2022-09-28T12:02:43.684Z,82.70
2022-09-28T12:03:43.680Z,82.15
2022-09-28T12:04:43.542Z,81.24
2022-09-28T12:05:43.579Z,80.42
2022-09-28T12:06:43.519Z,80.18
2022-09-28T12:07:44.298Z,79.87
2022-09-28T12:08:43.529Z,82.32
2022-09-28T12:09:44.371Z,82.01
2022-09-28T12:10:45.663Z,81.26
2022-09-28T12:11:43.484Z,81.37
2022-09-28T12:12:43.458Z,78.20
2022-09-28T12:13:43.428Z,79.32
2022-09-28T12:14:43.437Z,78.41
2022-09-28T12:16:11.586Z,77.59
2022-09-28T12:17:44.453Z,79.93
2022-09-28T12:18:43.389Z,80.75
2022-09-28T12:19:43.383Z,80.55
2022-09-28T12:20:43.367Z,81.37
2022-09-28T12:21:43.339Z,79.83
2022-09-28T12:22:43.349Z,80.65
2022-09-28T12:23:43.327Z,79.93
2022-09-28T12:24:43.429Z,80.55
2022-09-28T12:25:43.470Z,80.24
2022-09-28T12:26:43.318Z,79.28
2022-09-28T12:27:43.299Z,79.49
2022-09-28T12:28:44.077Z,79.59
2022-09-28T12:29:43.980Z,79.08
2022-09-28T12:30:44.195Z,77.83
2022-09-28T12:31:43.258Z,79.63
2022-09-28T12:32:43.228Z,80.04
2022-09-28T12:33:43.227Z,78.75
2022-09-28T12:34:43.230Z,80.38
2022-09-28T12:35:43.207Z,81.10
2022-09-28T12:36:43.188Z,81.26
2022-09-28T12:37:43.198Z,79.77
2022-09-28T12:38:43.336Z,79.52
2022-09-28T12:39:56.886Z,80.44
2022-09-28T12:40:44.187Z,80.14
2022-09-28T12:41:43.859Z,80.24
2022-09-28T12:42:43.129Z,78.85
2022-09-28T12:43:43.121Z,79.46
2022-09-28T12:44:43.099Z,81.10
2022-09-28T12:46:09.978Z,80.99
2022-09-28T12:46:44.144Z,80.18
2022-09-28T12:47:43.076Z,79.93
2022-09-28T12:48:43.048Z,80.24
2022-09-28T12:50:51.285Z,79.25
2022-09-28T12:51:44.036Z,79.63
2022-09-28T12:52:43.014Z,80.44
2022-09-28T12:53:43.007Z,80.24
2022-09-28T12:54:43.019Z,80.24